Data Viewer
| City | State | Eastern Time | Source | Temp | DewPt | RH | BP | 5 Min Precip | Wind Speed | Wind Dir | 5 Min Wind Max | 5 Min Wind Max Dir |
|---|---|---|---|---|---|---|---|---|---|---|---|---|
| Charlotteburg | NJ | 2026-05-07 05:20 | Mesonet | 45 | 44 | 96 | 29.79 | 0.00 | 2 | NNW | 5 | NNE |
| Charlotteburg | NJ | 2026-05-07 21:10 | Mesonet | 48 | 38 | 69 | 29.78 | 0.00 | 0 | NE | 0 | ENE |
| Charlotteburg | NJ | 2026-05-07 21:40 | Mesonet | 46 | 39 | 77 | 29.78 | 0.00 | 0 | ENE | 1 | ENE |
| Charlotteburg | NJ | 2026-05-07 21:35 | Mesonet | 46 | 39 | 75 | 29.78 | 0.00 | 0 | ENE | 1 | ENE |
| Charlotteburg | NJ | 2026-05-07 21:30 | Mesonet | 46 | 39 | 76 | 29.78 | 0.00 | 0 | NE | 0 | NNE |
| Charlotteburg | NJ | 2026-05-07 21:25 | Mesonet | 47 | 39 | 75 | 29.78 | 0.00 | 0 | NE | 0 | NE |
| Charlotteburg | NJ | 2026-05-07 21:20 | Mesonet | 47 | 39 | 73 | 29.78 | 0.00 | 0 | NE | 1 | NE |
| Charlotteburg | NJ | 2026-05-07 21:15 | Mesonet | 47 | 38 | 71 | 29.78 | 0.00 | 1 | NE | 1 | NE |
| Charlotteburg | NJ | 2026-05-07 21:05 | Mesonet | 48 | 38 | 67 | 29.78 | 0.00 | 0 | ENE | 1 | ENE |
| Charlotteburg | NJ | 2026-05-07 21:50 | Mesonet | 45 | 39 | 79 | 29.78 | 0.00 | 0 | ENE | 0 | ENE |
| Charlotteburg | NJ | 2026-05-07 21:00 | Mesonet | 48 | 38 | 68 | 29.78 | 0.00 | 0 | S | 0 | ENE |
| Charlotteburg | NJ | 2026-05-07 20:55 | Mesonet | 49 | 38 | 67 | 29.77 | 0.00 | 0 | ENE | 0 | SW |
| Charlotteburg | NJ | 2026-05-07 20:50 | Mesonet | 48 | 36 | 62 | 29.77 | 0.00 | 0 | SW | 1 | SW |
| Charlotteburg | NJ | 2026-05-07 20:45 | Mesonet | 49 | 36 | 62 | 29.77 | 0.00 | 0 | SW | 1 | SE |
| Charlotteburg | NJ | 2026-05-07 20:40 | Mesonet | 49 | 36 | 61 | 29.77 | 0.00 | 1 | SE | 1 | SE |
| Charlotteburg | NJ | 2026-05-07 20:35 | Mesonet | 50 | 36 | 60 | 29.77 | 0.00 | 0 | NNE | 1 | NE |
| Charlotteburg | NJ | 2026-05-07 21:45 | Mesonet | 46 | 39 | 78 | 29.78 | 0.00 | 0 | ENE | 0 | ENE |
| Charlotteburg | NJ | 2026-05-07 21:55 | Mesonet | 45 | 39 | 79 | 29.78 | 0.00 | 0 | NE | 0 | ENE |
| Charlotteburg | NJ | 2026-05-07 20:25 | Mesonet | 50 | 35 | 56 | 29.77 | 0.00 | 0 | NE | 1 | E |
| Charlotteburg | NJ | 2026-05-07 22:40 | Mesonet | 45 | 40 | 84 | 29.79 | 0.00 | 1 | ENE | 1 | ENE |
| Charlotteburg | NJ | 2026-05-07 23:10 | Mesonet | 45 | 40 | 83 | 29.78 | 0.00 | 1 | WNW | 2 | NE |
| Charlotteburg | NJ | 2026-05-07 23:05 | Mesonet | 45 | 40 | 84 | 29.78 | 0.00 | 2 | NNE | 2 | NNE |
| Charlotteburg | NJ | 2026-05-07 23:00 | Mesonet | 45 | 40 | 85 | 29.79 | 0.00 | 1 | N | 2 | NNW |
| Charlotteburg | NJ | 2026-05-07 22:55 | Mesonet | 44 | 40 | 86 | 29.79 | 0.00 | 1 | N | 1 | NNE |
| Charlotteburg | NJ | 2026-05-07 22:50 | Mesonet | 45 | 40 | 85 | 29.79 | 0.00 | 0 | N | 1 | NNE |
| Charlotteburg | NJ | 2026-05-07 22:45 | Mesonet | 45 | 40 | 84 | 29.79 | 0.00 | 0 | ENE | 1 | ENE |
| Charlotteburg | NJ | 2026-05-07 22:35 | Mesonet | 44 | 40 | 85 | 29.79 | 0.00 | 0 | NE | 0 | NE |
| Charlotteburg | NJ | 2026-05-07 22:00 | Mesonet | 45 | 39 | 79 | 29.79 | 0.00 | 0 | ENE | 1 | ENE |
| Charlotteburg | NJ | 2026-05-07 22:30 | Mesonet | 44 | 40 | 84 | 29.79 | 0.00 | 0 | NE | 0 | NE |
| Charlotteburg | NJ | 2026-05-07 22:25 | Mesonet | 44 | 40 | 84 | 29.79 | 0.00 | 0 | NE | 1 | NE |
| Charlotteburg | NJ | 2026-05-07 22:20 | Mesonet | 44 | 39 | 83 | 29.79 | 0.00 | 0 | NE | 0 | NE |
| Charlotteburg | NJ | 2026-05-07 22:15 | Mesonet | 44 | 39 | 82 | 29.78 | 0.00 | 0 | NE | 0 | ENE |
| Charlotteburg | NJ | 2026-05-07 22:10 | Mesonet | 45 | 39 | 80 | 29.78 | 0.00 | 0 | ENE | 1 | ENE |
| Charlotteburg | NJ | 2026-05-07 22:05 | Mesonet | 45 | 39 | 79 | 29.78 | 0.00 | 1 | ENE | 1 | ENE |
| Charlotteburg | NJ | 2026-05-07 20:30 | Mesonet | 50 | 36 | 58 | 29.77 | 0.00 | 0 | NE | 0 | NE |
| Charlotteburg | NJ | 2026-05-07 20:20 | Mesonet | 51 | 35 | 56 | 29.76 | 0.00 | 0 | NE | 2 | NE |
| Charlotteburg | NJ | 2026-05-07 23:20 | Mesonet | 45 | 40 | 83 | 29.78 | 0.00 | 0 | ENE | 2 | NW |
| Charlotteburg | NJ | 2026-05-07 18:10 | Mesonet | 60 | 36 | 41 | 29.75 | 0.00 | 3 | W | 8 | N |
| Charlotteburg | NJ | 2026-05-07 18:40 | Mesonet | 59 | 34 | 40 | 29.75 | 0.00 | 3 | NNW | 7 | NE |
| Charlotteburg | NJ | 2026-05-07 18:35 | Mesonet | 59 | 34 | 39 | 29.75 | 0.00 | 5 | WNW | 8 | NW |
| Charlotteburg | NJ | 2026-05-07 18:30 | Mesonet | 58 | 33 | 38 | 29.75 | 0.00 | 4 | NNE | 10 | NNW |
| Charlotteburg | NJ | 2026-05-07 18:25 | Mesonet | 58 | 34 | 40 | 29.75 | 0.00 | 6 | NW | 11 | NNW |
| Charlotteburg | NJ | 2026-05-07 18:20 | Mesonet | 59 | 33 | 37 | 29.75 | 0.00 | 3 | WNW | 6 | N |
| Charlotteburg | NJ | 2026-05-07 18:15 | Mesonet | 60 | 35 | 39 | 29.75 | 0.00 | 1 | N | 9 | WNW |
| Charlotteburg | NJ | 2026-05-07 18:05 | Mesonet | 59 | 35 | 39 | 29.75 | 0.00 | 3 | NNW | 13 | NE |
| Charlotteburg | NJ | 2026-05-07 18:50 | Mesonet | 57 | 34 | 41 | 29.75 | 0.00 | 2 | N | 9 | WNW |
| Charlotteburg | NJ | 2026-05-07 18:00 | Mesonet | 59 | 32 | 36 | 29.75 | 0.00 | 8 | NE | 12 | N |
| Charlotteburg | NJ | 2026-05-07 17:55 | Mesonet | 60 | 36 | 40 | 29.75 | 0.00 | 2 | NNW | 10 | N |
| Charlotteburg | NJ | 2026-05-07 17:50 | Mesonet | 60 | 33 | 36 | 29.75 | 0.00 | 0 | WNW | 7 | WNW |
| Charlotteburg | NJ | 2026-05-07 17:45 | Mesonet | 60 | 34 | 38 | 29.75 | 0.00 | 6 | NE | 8 | NNE |
| Charlotteburg | NJ | 2026-05-07 17:40 | Mesonet | 61 | 36 | 40 | 29.76 | 0.00 | 0 | NW | 8 | NNW |
| Charlotteburg | NJ | 2026-05-07 17:35 | Mesonet | 59 | 35 | 39 | 29.75 | 0.00 | 6 | NW | 12 | NNW |
| Charlotteburg | NJ | 2026-05-07 18:45 | Mesonet | 58 | 34 | 40 | 29.75 | 0.00 | 2 | WSW | 7 | NW |
| Charlotteburg | NJ | 2026-05-07 18:55 | Mesonet | 57 | 32 | 38 | 29.75 | 0.00 | 4 | NNW | 8 | NNW |
| Charlotteburg | NJ | 2026-05-07 20:15 | Mesonet | 51 | 35 | 54 | 29.76 | 0.00 | 0 | NE | 1 | ENE |
| Charlotteburg | NJ | 2026-05-07 19:40 | Mesonet | 55 | 33 | 43 | 29.75 | 0.00 | 1 | N | 2 | SW |
| Charlotteburg | NJ | 2026-05-07 20:10 | Mesonet | 52 | 35 | 52 | 29.76 | 0.00 | 0 | NE | 1 | NE |
| Charlotteburg | NJ | 2026-05-07 20:05 | Mesonet | 52 | 34 | 50 | 29.76 | 0.00 | 0 | NE | 0 | WSW |
| Charlotteburg | NJ | 2026-05-07 20:00 | Mesonet | 53 | 34 | 49 | 29.76 | 0.00 | 0 | WSW | 0 | NNW |
| Charlotteburg | NJ | 2026-05-07 19:55 | Mesonet | 54 | 34 | 48 | 29.76 | 0.00 | 0 | NNW | 1 | NE |
| Charlotteburg | NJ | 2026-05-07 19:50 | Mesonet | 55 | 34 | 45 | 29.75 | 0.00 | 0 | NE | 3 | NNW |
| Charlotteburg | NJ | 2026-05-07 19:45 | Mesonet | 55 | 33 | 43 | 29.75 | 0.00 | 2 | NNE | 2 | N |
| Charlotteburg | NJ | 2026-05-07 19:35 | Mesonet | 56 | 35 | 45 | 29.76 | 0.00 | 2 | W | 3 | NW |
| Charlotteburg | NJ | 2026-05-07 19:00 | Mesonet | 57 | 33 | 40 | 29.75 | 0.00 | 1 | WNW | 5 | NNW |
| Charlotteburg | NJ | 2026-05-07 19:30 | Mesonet | 56 | 34 | 42 | 29.75 | 0.00 | 3 | WSW | 5 | WNW |
| Charlotteburg | NJ | 2026-05-07 19:25 | Mesonet | 56 | 34 | 43 | 29.75 | 0.00 | 1 | NW | 5 | NNW |
| Charlotteburg | NJ | 2026-05-07 19:20 | Mesonet | 56 | 34 | 42 | 29.75 | 0.00 | 3 | N | 7 | NW |
| Charlotteburg | NJ | 2026-05-07 19:15 | Mesonet | 57 | 34 | 41 | 29.75 | 0.00 | 3 | NW | 5 | NNW |
| Charlotteburg | NJ | 2026-05-07 19:10 | Mesonet | 57 | 34 | 42 | 29.75 | 0.00 | 2 | W | 8 | NW |
| Charlotteburg | NJ | 2026-05-07 19:05 | Mesonet | 57 | 33 | 40 | 29.75 | 0.00 | 5 | NW | 9 | WNW |
| Charlotteburg | NJ | 2026-05-07 23:15 | Mesonet | 45 | 40 | 81 | 29.78 | 0.00 | 1 | SE | 3 | NW |
| Charlotteburg | NJ | 2026-05-07 23:25 | Mesonet | 45 | 40 | 83 | 29.78 | 0.00 | 2 | NNE | 3 | NE |
| Charlotteburg | NJ | 2026-05-07 17:25 | Mesonet | 58 | 32 | 38 | 29.75 | 0.00 | 1 | N | 6 | NW |
| Charlotteburg | NJ | 2026-05-08 03:15 | Mesonet | 43 | 43 | 100 | 29.84 | 0.00 | 1 | NE | 3 | NW |
| Charlotteburg | NJ | 2026-05-08 03:45 | Mesonet | 43 | 43 | 99 | 29.84 | 0.00 | 6 | WNW | 7 | NNW |
| Charlotteburg | NJ | 2026-05-08 03:40 | Mesonet | 43 | 43 | 100 | 29.84 | 0.00 | 1 | NE | 6 | N |
| Charlotteburg | NJ | 2026-05-08 03:35 | Mesonet | 43 | 43 | 100 | 29.84 | 0.00 | 2 | NNE | 6 | NNW |
| Charlotteburg | NJ | 2026-05-08 03:30 | Mesonet | 43 | 43 | 100 | 29.84 | 0.00 | 1 | NNE | 5 | WNW |
| Charlotteburg | NJ | 2026-05-08 03:25 | Mesonet | 43 | 43 | 100 | 29.84 | 0.00 | 0 | W | 3 | N |
| Charlotteburg | NJ | 2026-05-08 03:20 | Mesonet | 43 | 43 | 100 | 29.84 | 0.00 | 0 | NE | 1 | ENE |
| Charlotteburg | NJ | 2026-05-08 03:10 | Mesonet | 43 | 43 | 100 | 29.84 | 0.00 | 1 | WNW | 2 | SE |
| Charlotteburg | NJ | 2026-05-08 03:55 | Mesonet | 43 | 42 | 97 | 29.84 | 0.00 | 0 | NNE | 0 | SW |
| Charlotteburg | NJ | 2026-05-08 03:05 | Mesonet | 43 | 43 | 100 | 29.83 | 0.00 | 1 | E | 2 | SE |
| Charlotteburg | NJ | 2026-05-08 03:00 | Mesonet | 43 | 43 | 100 | 29.84 | 0.00 | 0 | S | 2 | NE |
| Charlotteburg | NJ | 2026-05-08 02:55 | Mesonet | 43 | 43 | 100 | 29.84 | 0.00 | 1 | NE | 4 | N |
| Charlotteburg | NJ | 2026-05-08 02:50 | Mesonet | 43 | 43 | 100 | 29.85 | 0.00 | 1 | E | 4 | NNE |
| Charlotteburg | NJ | 2026-05-08 02:45 | Mesonet | 43 | 43 | 100 | 29.85 | 0.00 | 1 | NNW | 3 | ENE |
| Charlotteburg | NJ | 2026-05-08 02:40 | Mesonet | 43 | 43 | 99 | 29.85 | 0.00 | 1 | NE | 1 | NW |
| Charlotteburg | NJ | 2026-05-08 03:50 | Mesonet | 43 | 43 | 97 | 29.83 | 0.00 | 0 | NE | 5 | WNW |
| Charlotteburg | NJ | 2026-05-08 04:00 | Mesonet | 43 | 42 | 97 | 29.84 | 0.00 | 0 | NNW | 2 | ENE |
| Charlotteburg | NJ | 2026-05-08 02:30 | Mesonet | 43 | 43 | 98 | 29.85 | 0.00 | 1 | W | 2 | NNW |
| Charlotteburg | NJ | 2026-05-08 04:45 | Mesonet | 42 | 42 | 100 | 29.84 | 0.00 | 1 | NNE | 4 | NW |
| Charlotteburg | NJ | 2026-05-08 05:15 | Mesonet | 41 | 41 | 100 | 29.84 | 0.00 | 0 | NE | 2 | NW |
| Charlotteburg | NJ | 2026-05-08 05:10 | Mesonet | 41 | 41 | 100 | 29.84 | 0.00 | 1 | NNE | 2 | NE |
| Charlotteburg | NJ | 2026-05-08 05:05 | Mesonet | 41 | 41 | 100 | 29.85 | 0.00 | 0 | NE | 4 | NNW |
| Charlotteburg | NJ | 2026-05-08 05:00 | Mesonet | 41 | 41 | 100 | 29.84 | 0.00 | 0 | NE | 2 | N |
| Charlotteburg | NJ | 2026-05-08 04:55 | Mesonet | 41 | 41 | 100 | 29.84 | 0.00 | 1 | N | 2 | NE |
| Charlotteburg | NJ | 2026-05-08 04:50 | Mesonet | 41 | 41 | 100 | 29.84 | 0.00 | 2 | NNW | 2 | N |
| Charlotteburg | NJ | 2026-05-08 04:40 | Mesonet | 42 | 42 | 100 | 29.84 | 0.00 | 1 | NNE | 2 | WNW |
| Charlotteburg | NJ | 2026-05-08 04:05 | Mesonet | 43 | 42 | 98 | 29.84 | 0.00 | 2 | NNE | 4 | WNW |
| Charlotteburg | NJ | 2026-05-08 04:35 | Mesonet | 42 | 42 | 100 | 29.84 | 0.00 | 0 | N | 3 | SW |
| Charlotteburg | NJ | 2026-05-08 04:30 | Mesonet | 42 | 42 | 100 | 29.84 | 0.00 | 3 | W | 3 | W |
| Charlotteburg | NJ | 2026-05-08 04:25 | Mesonet | 42 | 42 | 100 | 29.84 | 0.00 | 1 | NNW | 2 | N |
| Charlotteburg | NJ | 2026-05-08 04:20 | Mesonet | 42 | 42 | 100 | 29.84 | 0.00 | 1 | N | 3 | NNW |
| Charlotteburg | NJ | 2026-05-08 04:15 | Mesonet | 42 | 42 | 100 | 29.84 | 0.00 | 0 | NNW | 2 | NNE |
| Charlotteburg | NJ | 2026-05-08 04:10 | Mesonet | 42 | 42 | 99 | 29.84 | 0.00 | 2 | NNE | 3 | WSW |
| Charlotteburg | NJ | 2026-05-08 02:35 | Mesonet | 43 | 43 | 99 | 29.85 | 0.00 | 2 | N | 2 | NNE |
| Charlotteburg | NJ | 2026-05-08 02:25 | Mesonet | 44 | 43 | 97 | 29.85 | 0.00 | 0 | NNW | 1 | NE |
| Charlotteburg | NJ | 2026-05-07 23:30 | Mesonet | 45 | 40 | 83 | 29.78 | 0.00 | 0 | NE | 3 | NNE |
| Charlotteburg | NJ | 2026-05-08 00:10 | Mesonet | 45 | 40 | 83 | 29.79 | 0.00 | 0 | NNE | 1 | SSE |
| Charlotteburg | NJ | 2026-05-08 00:40 | Mesonet | 44 | 39 | 82 | 29.78 | 0.00 | 0 | NNE | 1 | SE |
| Charlotteburg | NJ | 2026-05-08 00:35 | Mesonet | 44 | 39 | 82 | 29.77 | 0.00 | 0 | NW | 2 | E |
| Charlotteburg | NJ | 2026-05-08 00:30 | Mesonet | 45 | 39 | 81 | 29.78 | 0.00 | 0 | NNE | 1 | ENE |
| Charlotteburg | NJ | 2026-05-08 00:25 | Mesonet | 45 | 39 | 80 | 29.78 | 0.00 | 1 | ENE | 3 | ENE |
| Charlotteburg | NJ | 2026-05-08 00:20 | Mesonet | 45 | 40 | 83 | 29.78 | 0.00 | 2 | E | 3 | NW |
| Charlotteburg | NJ | 2026-05-08 00:15 | Mesonet | 45 | 40 | 83 | 29.79 | 0.00 | 1 | N | 1 | N |
| Charlotteburg | NJ | 2026-05-08 00:05 | Mesonet | 45 | 39 | 82 | 29.79 | 0.00 | 0 | SE | 1 | S |
| Charlotteburg | NJ | 2026-05-08 00:50 | Mesonet | 44 | 39 | 83 | 29.78 | 0.00 | 0 | NW | 1 | SSW |
| Charlotteburg | NJ | 2026-05-08 00:00 | Mesonet | 45 | 40 | 82 | 29.78 | 0.00 | 0 | SSW | 1 | NNW |
| Charlotteburg | NJ | 2026-05-07 23:55 | Mesonet | 45 | 40 | 82 | 29.78 | 0.00 | 0 | N | 1 | N |
| Charlotteburg | NJ | 2026-05-07 23:50 | Mesonet | 44 | 40 | 83 | 29.78 | 0.00 | 0 | ESE | 0 | ESE |
| Charlotteburg | NJ | 2026-05-07 23:45 | Mesonet | 44 | 39 | 83 | 29.78 | 0.00 | 0 | WNW | 0 | WNW |
| Charlotteburg | NJ | 2026-05-07 23:40 | Mesonet | 44 | 39 | 82 | 29.78 | 0.00 | 0 | WNW | 1 | NE |
| Charlotteburg | NJ | 2026-05-07 23:35 | Mesonet | 44 | 39 | 82 | 29.78 | 0.00 | 1 | NE | 2 | NE |
| Charlotteburg | NJ | 2026-05-08 00:45 | Mesonet | 44 | 39 | 80 | 29.78 | 0.00 | 1 | SE | 2 | NNE |
| Charlotteburg | NJ | 2026-05-08 00:55 | Mesonet | 45 | 40 | 83 | 29.78 | 0.00 | 0 | ESE | 2 | SSW |
| Charlotteburg | NJ | 2026-05-08 02:20 | Mesonet | 44 | 43 | 96 | 29.84 | 0.01 | 1 | NNE | 2 | ENE |
| Charlotteburg | NJ | 2026-05-08 01:45 | Mesonet | 46 | 40 | 81 | 29.86 | 0.00 | 1 | NW | 7 | NNW |
| Charlotteburg | NJ | 2026-05-08 02:15 | Mesonet | 44 | 42 | 95 | 29.85 | 0.00 | 1 | NW | 1 | NW |
| Charlotteburg | NJ | 2026-05-08 02:10 | Mesonet | 44 | 42 | 93 | 29.85 | 0.00 | 0 | N | 2 | NNE |
| Charlotteburg | NJ | 2026-05-08 02:05 | Mesonet | 44 | 42 | 91 | 29.85 | 0.01 | 1 | NE | 3 | NNW |
| Charlotteburg | NJ | 2026-05-08 02:00 | Mesonet | 45 | 42 | 90 | 29.85 | 0.01 | 0 | S | 1 | NW |
| Charlotteburg | NJ | 2026-05-08 01:55 | Mesonet | 45 | 41 | 88 | 29.86 | 0.00 | 1 | NW | 4 | NW |
| Charlotteburg | NJ | 2026-05-08 01:50 | Mesonet | 45 | 41 | 86 | 29.86 | 0.00 | 1 | N | 4 | NNW |
| Charlotteburg | NJ | 2026-05-08 01:40 | Mesonet | 46 | 40 | 78 | 29.86 | 0.01 | 3 | W | 9 | WNW |
| Charlotteburg | NJ | 2026-05-08 01:00 | Mesonet | 45 | 40 | 82 | 29.78 | 0.00 | 0 | E | 0 | E |
| Charlotteburg | NJ | 2026-05-08 01:35 | Mesonet | 48 | 39 | 71 | 29.86 | 0.00 | 9 | WNW | 14 | WSW |
| Charlotteburg | NJ | 2026-05-08 01:30 | Mesonet | 48 | 38 | 68 | 29.85 | 0.00 | 2 | NE | 6 | WNW |
| Charlotteburg | NJ | 2026-05-08 01:25 | Mesonet | 49 | 37 | 63 | 29.83 | 0.00 | 4 | WNW | 6 | WNW |
| Charlotteburg | NJ | 2026-05-08 01:20 | Mesonet | 48 | 38 | 69 | 29.83 | 0.00 | 4 | SW | 10 | W |
| Charlotteburg | NJ | 2026-05-08 01:15 | Mesonet | 46 | 41 | 83 | 29.82 | 0.00 | 11 | NW | 12 | WNW |
| Charlotteburg | NJ | 2026-05-08 01:10 | Mesonet | 45 | 40 | 82 | 29.81 | 0.00 | 0 | NW | 3 | WNW |
| Charlotteburg | NJ | 2026-05-08 01:05 | Mesonet | 45 | 40 | 83 | 29.79 | 0.00 | 1 | NNW | 1 | NNW |
| Charlotteburg | NJ | 2026-05-07 17:30 | Mesonet | 58 | 35 | 42 | 29.75 | 0.00 | 0 | SSE | 5 | NNE |
| Charlotteburg | NJ | 2026-05-07 17:20 | Mesonet | 58 | 33 | 38 | 29.75 | 0.00 | 3 | E | 6 | NW |
| Charlotteburg | NJ | 2026-05-07 05:25 | Mesonet | 45 | 44 | 97 | 29.79 | 0.00 | 1 | NW | 6 | NW |
| Charlotteburg | NJ | 2026-05-07 09:05 | Mesonet | 50 | 35 | 57 | 29.84 | 0.00 | 2 | NNE | 8 | WNW |
| Charlotteburg | NJ | 2026-05-07 09:35 | Mesonet | 51 | 36 | 57 | 29.85 | 0.00 | 4 | WNW | 6 | WSW |
| Charlotteburg | NJ | 2026-05-07 09:30 | Mesonet | 50 | 35 | 56 | 29.84 | 0.00 | 5 | W | 7 | W |
| Charlotteburg | NJ | 2026-05-07 09:25 | Mesonet | 50 | 35 | 56 | 29.84 | 0.00 | 5 | WSW | 9 | NW |
| Charlotteburg | NJ | 2026-05-07 09:20 | Mesonet | 50 | 36 | 59 | 29.85 | 0.00 | 1 | NNE | 10 | NW |
| Charlotteburg | NJ | 2026-05-07 09:15 | Mesonet | 50 | 36 | 59 | 29.85 | 0.00 | 4 | SW | 7 | NNW |
| Charlotteburg | NJ | 2026-05-07 09:10 | Mesonet | 50 | 35 | 57 | 29.84 | 0.00 | 0 | W | 7 | N |
| Charlotteburg | NJ | 2026-05-07 09:00 | Mesonet | 49 | 33 | 54 | 29.84 | 0.00 | 1 | W | 9 | NW |
| Charlotteburg | NJ | 2026-05-07 09:45 | Mesonet | 51 | 34 | 52 | 29.85 | 0.00 | 4 | W | 10 | W |
| Charlotteburg | NJ | 2026-05-07 08:55 | Mesonet | 49 | 32 | 52 | 29.84 | 0.00 | 1 | W | 9 | NW |
| Charlotteburg | NJ | 2026-05-07 08:50 | Mesonet | 49 | 32 | 53 | 29.83 | 0.00 | 8 | WNW | 15 | WNW |
| Charlotteburg | NJ | 2026-05-07 08:45 | Mesonet | 49 | 33 | 54 | 29.84 | 0.00 | 1 | NW | 13 | NW |
| Charlotteburg | NJ | 2026-05-07 08:40 | Mesonet | 48 | 34 | 57 | 29.83 | 0.00 | 3 | WSW | 12 | NW |
| Charlotteburg | NJ | 2026-05-07 08:35 | Mesonet | 48 | 33 | 57 | 29.83 | 0.00 | 1 | W | 11 | NNW |
| Charlotteburg | NJ | 2026-05-07 08:30 | Mesonet | 48 | 33 | 57 | 29.83 | 0.00 | 4 | NNW | 12 | WSW |
| Charlotteburg | NJ | 2026-05-07 09:40 | Mesonet | 51 | 35 | 54 | 29.85 | 0.00 | 3 | ENE | 9 | NW |
| Charlotteburg | NJ | 2026-05-07 09:50 | Mesonet | 51 | 33 | 50 | 29.84 | 0.00 | 3 | NE | 14 | NNE |
| Charlotteburg | NJ | 2026-05-07 08:20 | Mesonet | 48 | 36 | 62 | 29.83 | 0.00 | 5 | NNE | 14 | WSW |
| Charlotteburg | NJ | 2026-05-07 10:35 | Mesonet | 54 | 34 | 46 | 29.85 | 0.00 | 4 | NNW | 11 | W |
| Charlotteburg | NJ | 2026-05-07 11:05 | Mesonet | 55 | 37 | 51 | 29.85 | 0.00 | 6 | W | 11 | NNE |
| Charlotteburg | NJ | 2026-05-07 11:00 | Mesonet | 54 | 34 | 47 | 29.85 | 0.00 | 10 | WNW | 10 | WNW |
| Charlotteburg | NJ | 2026-05-07 10:55 | Mesonet | 54 | 33 | 44 | 29.85 | 0.00 | 1 | SSE | 9 | NNW |
| Charlotteburg | NJ | 2026-05-07 10:50 | Mesonet | 54 | 33 | 46 | 29.86 | 0.00 | 0 | NNE | 12 | NNW |
| Charlotteburg | NJ | 2026-05-07 10:45 | Mesonet | 54 | 32 | 43 | 29.85 | 0.00 | 5 | W | 12 | NW |
| Charlotteburg | NJ | 2026-05-07 10:40 | Mesonet | 54 | 35 | 49 | 29.85 | 0.00 | 5 | NW | 11 | NW |
| Charlotteburg | NJ | 2026-05-07 10:30 | Mesonet | 54 | 32 | 43 | 29.85 | 0.00 | 6 | WNW | 10 | NNW |
| Charlotteburg | NJ | 2026-05-07 09:55 | Mesonet | 52 | 36 | 55 | 29.85 | 0.00 | 5 | WNW | 13 | WNW |
| Charlotteburg | NJ | 2026-05-07 10:25 | Mesonet | 53 | 34 | 48 | 29.85 | 0.00 | 2 | WNW | 8 | W |
| Charlotteburg | NJ | 2026-05-07 10:20 | Mesonet | 53 | 33 | 47 | 29.85 | 0.00 | 3 | N | 9 | W |
| Charlotteburg | NJ | 2026-05-07 10:15 | Mesonet | 53 | 35 | 50 | 29.85 | 0.00 | 4 | NNE | 8 | NW |
| Charlotteburg | NJ | 2026-05-07 10:10 | Mesonet | 53 | 36 | 53 | 29.85 | 0.00 | 5 | WNW | 10 | WNW |
| Charlotteburg | NJ | 2026-05-07 10:05 | Mesonet | 52 | 34 | 49 | 29.85 | 0.00 | 5 | W | 10 | NW |
| Charlotteburg | NJ | 2026-05-07 10:00 | Mesonet | 52 | 35 | 52 | 29.85 | 0.00 | 9 | WNW | 11 | W |
| Charlotteburg | NJ | 2026-05-07 08:25 | Mesonet | 48 | 35 | 59 | 29.83 | 0.00 | 9 | NNW | 14 | N |
| Charlotteburg | NJ | 2026-05-07 08:15 | Mesonet | 48 | 36 | 62 | 29.83 | 0.00 | 5 | WNW | 15 | NW |
| Charlotteburg | NJ | 2026-05-07 11:15 | Mesonet | 55 | 37 | 51 | 29.84 | 0.00 | 3 | W | 9 | NNW |
| Charlotteburg | NJ | 2026-05-07 06:05 | Mesonet | 46 | 44 | 94 | 29.79 | 0.00 | 5 | NW | 10 | NW |
| Charlotteburg | NJ | 2026-05-07 06:35 | Mesonet | 46 | 43 | 92 | 29.81 | 0.00 | 2 | NW | 8 | NW |
| Charlotteburg | NJ | 2026-05-07 06:30 | Mesonet | 46 | 43 | 92 | 29.80 | 0.00 | 3 | NW | 9 | NNW |
| Charlotteburg | NJ | 2026-05-07 06:25 | Mesonet | 46 | 43 | 92 | 29.80 | 0.00 | 4 | N | 11 | NNW |
| Charlotteburg | NJ | 2026-05-07 06:20 | Mesonet | 46 | 43 | 92 | 29.80 | 0.00 | 1 | NNE | 11 | NW |
| Charlotteburg | NJ | 2026-05-07 06:15 | Mesonet | 46 | 43 | 93 | 29.80 | 0.00 | 0 | S | 9 | NW |
| Charlotteburg | NJ | 2026-05-07 06:10 | Mesonet | 46 | 44 | 93 | 29.79 | 0.00 | 0 | W | 9 | NNW |
| Charlotteburg | NJ | 2026-05-07 06:00 | Mesonet | 46 | 44 | 94 | 29.79 | 0.00 | 3 | W | 9 | NW |
| Charlotteburg | NJ | 2026-05-07 06:45 | Mesonet | 46 | 43 | 91 | 29.81 | 0.00 | 2 | NNE | 6 | N |
| Charlotteburg | NJ | 2026-05-07 05:55 | Mesonet | 45 | 44 | 94 | 29.79 | 0.00 | 5 | W | 10 | WNW |
| Charlotteburg | NJ | 2026-05-07 05:50 | Mesonet | 45 | 44 | 94 | 29.79 | 0.00 | 5 | WNW | 10 | NW |
| Charlotteburg | NJ | 2026-05-07 05:45 | Mesonet | 45 | 44 | 94 | 29.79 | 0.00 | 4 | NNW | 9 | NW |
| Charlotteburg | NJ | 2026-05-07 05:40 | Mesonet | 45 | 44 | 95 | 29.79 | 0.00 | 4 | NW | 10 | WNW |
| Charlotteburg | NJ | 2026-05-07 05:35 | Mesonet | 45 | 44 | 95 | 29.79 | 0.00 | 0 | SSE | 5 | WNW |
| Charlotteburg | NJ | 2026-05-07 05:30 | Mesonet | 45 | 44 | 96 | 29.79 | 0.00 | 2 | NNW | 8 | WNW |
| Charlotteburg | NJ | 2026-05-07 06:40 | Mesonet | 46 | 43 | 91 | 29.81 | 0.00 | 1 | N | 8 | NNW |
| Charlotteburg | NJ | 2026-05-07 06:50 | Mesonet | 46 | 43 | 90 | 29.81 | 0.00 | 4 | NW | 7 | NW |
| Charlotteburg | NJ | 2026-05-07 08:10 | Mesonet | 48 | 38 | 68 | 29.83 | 0.00 | 8 | NW | 13 | NW |
| Charlotteburg | NJ | 2026-05-07 07:35 | Mesonet | 47 | 43 | 86 | 29.82 | 0.00 | 2 | NW | 9 | WNW |
| Charlotteburg | NJ | 2026-05-07 08:05 | Mesonet | 48 | 39 | 71 | 29.83 | 0.00 | 4 | WNW | 10 | N |
| Charlotteburg | NJ | 2026-05-07 08:00 | Mesonet | 49 | 40 | 72 | 29.83 | 0.00 | 7 | W | 11 | NW |
| Charlotteburg | NJ | 2026-05-07 07:55 | Mesonet | 48 | 41 | 75 | 29.83 | 0.00 | 9 | WNW | 12 | NNW |
| Charlotteburg | NJ | 2026-05-07 07:50 | Mesonet | 48 | 41 | 77 | 29.83 | 0.00 | 6 | NW | 11 | NNE |
| Charlotteburg | NJ | 2026-05-07 07:45 | Mesonet | 48 | 43 | 81 | 29.83 | 0.00 | 3 | W | 6 | W |
| Charlotteburg | NJ | 2026-05-07 07:40 | Mesonet | 48 | 43 | 84 | 29.83 | 0.00 | 4 | NNW | 8 | WNW |
| Charlotteburg | NJ | 2026-05-07 07:30 | Mesonet | 46 | 43 | 88 | 29.82 | 0.00 | 4 | NNW | 11 | W |
| Charlotteburg | NJ | 2026-05-07 06:55 | Mesonet | 46 | 43 | 90 | 29.81 | 0.00 | 1 | NNW | 9 | NW |
| Charlotteburg | NJ | 2026-05-07 07:25 | Mesonet | 46 | 43 | 87 | 29.82 | 0.00 | 5 | NW | 13 | NNW |
| Charlotteburg | NJ | 2026-05-07 07:20 | Mesonet | 46 | 43 | 88 | 29.82 | 0.00 | 4 | W | 10 | N |
| Charlotteburg | NJ | 2026-05-07 07:15 | Mesonet | 46 | 43 | 88 | 29.82 | 0.00 | 4 | N | 8 | N |
| Charlotteburg | NJ | 2026-05-07 07:10 | Mesonet | 46 | 43 | 89 | 29.82 | 0.00 | 4 | NNW | 9 | WNW |
| Charlotteburg | NJ | 2026-05-07 07:05 | Mesonet | 46 | 43 | 89 | 29.81 | 0.00 | 4 | WNW | 10 | NNW |
| Charlotteburg | NJ | 2026-05-07 07:00 | Mesonet | 46 | 43 | 90 | 29.81 | 0.00 | 1 | SSE | 6 | NW |
| Charlotteburg | NJ | 2026-05-07 11:10 | Mesonet | 55 | 33 | 43 | 29.85 | 0.00 | 9 | N | 16 | NNE |
| Charlotteburg | NJ | 2026-05-07 11:20 | Mesonet | 55 | 35 | 47 | 29.84 | 0.00 | 4 | N | 14 | NNE |
| Charlotteburg | NJ | 2026-05-07 17:15 | Mesonet | 58 | 34 | 40 | 29.75 | 0.00 | 0 | ESE | 6 | W |
| Charlotteburg | NJ | 2026-05-07 15:10 | Mesonet | 60 | 35 | 39 | 29.77 | 0.00 | 5 | NW | 18 | WSW |
| Charlotteburg | NJ | 2026-05-07 15:40 | Mesonet | 57 | 34 | 41 | 29.75 | 0.00 | 8 | NW | 11 | WNW |
| Charlotteburg | NJ | 2026-05-07 15:35 | Mesonet | 58 | 33 | 38 | 29.75 | 0.00 | 1 | NNW | 11 | WNW |
| Charlotteburg | NJ | 2026-05-07 15:30 | Mesonet | 59 | 34 | 38 | 29.75 | 0.00 | 2 | NNW | 9 | NNW |
| Charlotteburg | NJ | 2026-05-07 15:25 | Mesonet | 60 | 38 | 44 | 29.75 | 0.00 | 1 | W | 14 | WSW |
| Charlotteburg | NJ | 2026-05-07 15:20 | Mesonet | 60 | 35 | 39 | 29.75 | 0.00 | 5 | S | 10 | W |
| Charlotteburg | NJ | 2026-05-07 15:15 | Mesonet | 60 | 34 | 38 | 29.76 | 0.00 | 4 | NW | 15 | NW |
| Charlotteburg | NJ | 2026-05-07 15:05 | Mesonet | 61 | 35 | 37 | 29.76 | 0.00 | 6 | NNE | 11 | N |
| Charlotteburg | NJ | 2026-05-07 15:50 | Mesonet | 59 | 35 | 41 | 29.75 | 0.00 | 1 | NW | 8 | WNW |
| Charlotteburg | NJ | 2026-05-07 15:00 | Mesonet | 60 | 34 | 37 | 29.76 | 0.00 | 3 | W | 7 | N |
| Charlotteburg | NJ | 2026-05-07 14:55 | Mesonet | 61 | 36 | 39 | 29.76 | 0.00 | 7 | N | 14 | N |
| Charlotteburg | NJ | 2026-05-07 14:50 | Mesonet | 61 | 38 | 43 | 29.76 | 0.00 | 5 | NNW | 10 | W |
| Charlotteburg | NJ | 2026-05-07 14:45 | Mesonet | 61 | 37 | 40 | 29.76 | 0.00 | 9 | W | 12 | W |
| Charlotteburg | NJ | 2026-05-07 14:40 | Mesonet | 61 | 37 | 41 | 29.76 | 0.00 | 2 | NW | 13 | WNW |
| Charlotteburg | NJ | 2026-05-07 14:35 | Mesonet | 61 | 37 | 40 | 29.77 | 0.00 | 3 | SW | 9 | W |
| Charlotteburg | NJ | 2026-05-07 15:45 | Mesonet | 58 | 35 | 42 | 29.75 | 0.00 | 4 | NW | 10 | NW |
| Charlotteburg | NJ | 2026-05-07 15:55 | Mesonet | 61 | 35 | 38 | 29.75 | 0.00 | 2 | NW | 8 | W |
| Charlotteburg | NJ | 2026-05-07 14:25 | Mesonet | 60 | 37 | 42 | 29.77 | 0.00 | 7 | NW | 13 | WNW |
| Charlotteburg | NJ | 2026-05-07 16:40 | Mesonet | 63 | 38 | 39 | 29.75 | 0.00 | 2 | NNW | 7 | NNW |
| Charlotteburg | NJ | 2026-05-07 17:10 | Mesonet | 59 | 34 | 39 | 29.75 | 0.00 | 4 | NW | 10 | WNW |
| Charlotteburg | NJ | 2026-05-07 17:05 | Mesonet | 59 | 35 | 39 | 29.75 | 0.00 | 4 | N | 9 | N |
| Charlotteburg | NJ | 2026-05-07 17:00 | Mesonet | 59 | 34 | 39 | 29.75 | 0.00 | 6 | NW | 11 | W |
| Charlotteburg | NJ | 2026-05-07 16:55 | Mesonet | 60 | 33 | 36 | 29.75 | 0.00 | 9 | W | 15 | NNW |
| Charlotteburg | NJ | 2026-05-07 16:50 | Mesonet | 61 | 35 | 37 | 29.74 | 0.00 | 2 | NNW | 13 | W |
| Charlotteburg | NJ | 2026-05-07 16:45 | Mesonet | 62 | 38 | 41 | 29.75 | 0.00 | 3 | NW | 6 | SSW |
| Charlotteburg | NJ | 2026-05-07 16:35 | Mesonet | 61 | 34 | 36 | 29.75 | 0.00 | 4 | W | 8 | NNW |
| Charlotteburg | NJ | 2026-05-07 16:00 | Mesonet | 61 | 36 | 39 | 29.75 | 0.00 | 2 | WSW | 9 | WNW |
| Charlotteburg | NJ | 2026-05-07 16:30 | Mesonet | 60 | 35 | 38 | 29.75 | 0.00 | 3 | NNW | 11 | NNW |
| Charlotteburg | NJ | 2026-05-07 16:25 | Mesonet | 59 | 34 | 38 | 29.75 | 0.00 | 6 | W | 12 | NNW |
| Charlotteburg | NJ | 2026-05-07 16:20 | Mesonet | 59 | 33 | 38 | 29.74 | 0.00 | 5 | SW | 13 | W |
| Charlotteburg | NJ | 2026-05-07 16:15 | Mesonet | 59 | 33 | 37 | 29.75 | 0.00 | 1 | NW | 11 | NW |
| Charlotteburg | NJ | 2026-05-07 16:10 | Mesonet | 58 | 33 | 40 | 29.75 | 0.00 | 2 | WNW | 15 | WSW |
| Charlotteburg | NJ | 2026-05-07 16:05 | Mesonet | 59 | 34 | 38 | 29.75 | 0.00 | 7 | WNW | 13 | W |
| Charlotteburg | NJ | 2026-05-07 14:30 | Mesonet | 60 | 35 | 38 | 29.77 | 0.00 | 4 | SSW | 11 | NNW |
| Charlotteburg | NJ | 2026-05-07 14:20 | Mesonet | 60 | 35 | 38 | 29.77 | 0.00 | 9 | NNW | 9 | NNW |
| Charlotteburg | NJ | 2026-05-07 11:25 | Mesonet | 55 | 36 | 48 | 29.83 | 0.00 | 6 | NW | 11 | N |
| Charlotteburg | NJ | 2026-05-07 12:05 | Mesonet | 56 | 32 | 41 | 29.82 | 0.00 | 5 | WSW | 14 | NW |
| Charlotteburg | NJ | 2026-05-07 12:35 | Mesonet | 57 | 35 | 43 | 29.81 | 0.00 | 10 | W | 13 | W |
| Charlotteburg | NJ | 2026-05-07 12:30 | Mesonet | 57 | 36 | 45 | 29.81 | 0.00 | 4 | NW | 8 | WNW |
| Charlotteburg | NJ | 2026-05-07 12:25 | Mesonet | 56 | 33 | 42 | 29.81 | 0.00 | 3 | S | 11 | NNE |
| Charlotteburg | NJ | 2026-05-07 12:20 | Mesonet | 57 | 37 | 48 | 29.82 | 0.00 | 3 | NW | 10 | NW |
| Charlotteburg | NJ | 2026-05-07 12:15 | Mesonet | 56 | 33 | 40 | 29.82 | 0.00 | 1 | NNE | 11 | NNE |
| Charlotteburg | NJ | 2026-05-07 12:10 | Mesonet | 56 | 34 | 43 | 29.82 | 0.00 | 5 | ENE | 12 | NW |
| Charlotteburg | NJ | 2026-05-07 12:00 | Mesonet | 57 | 33 | 40 | 29.82 | 0.00 | 4 | W | 10 | N |
| Charlotteburg | NJ | 2026-05-07 12:45 | Mesonet | 56 | 34 | 43 | 29.81 | 0.00 | 3 | W | 11 | WNW |
| Charlotteburg | NJ | 2026-05-07 11:55 | Mesonet | 57 | 35 | 44 | 29.82 | 0.00 | 4 | SSW | 12 | NNW |
| Charlotteburg | NJ | 2026-05-07 11:50 | Mesonet | 56 | 32 | 41 | 29.82 | 0.00 | 6 | SW | 11 | NNW |
| Charlotteburg | NJ | 2026-05-07 11:45 | Mesonet | 56 | 35 | 46 | 29.82 | 0.00 | 4 | W | 9 | WNW |
| Charlotteburg | NJ | 2026-05-07 11:40 | Mesonet | 57 | 36 | 46 | 29.83 | 0.00 | 2 | N | 8 | WNW |
| Charlotteburg | NJ | 2026-05-07 11:35 | Mesonet | 56 | 36 | 47 | 29.83 | 0.00 | 3 | WSW | 10 | NNE |
| Charlotteburg | NJ | 2026-05-07 11:30 | Mesonet | 56 | 36 | 47 | 29.83 | 0.00 | 3 | WNW | 7 | NW |
| Charlotteburg | NJ | 2026-05-07 12:40 | Mesonet | 57 | 34 | 43 | 29.81 | 0.00 | 9 | WNW | 15 | W |
| Charlotteburg | NJ | 2026-05-07 12:50 | Mesonet | 57 | 36 | 44 | 29.81 | 0.00 | 4 | WNW | 18 | WNW |
| Charlotteburg | NJ | 2026-05-07 14:15 | Mesonet | 59 | 34 | 38 | 29.77 | 0.00 | 7 | W | 10 | NNW |
| Charlotteburg | NJ | 2026-05-07 13:40 | Mesonet | 59 | 34 | 40 | 29.79 | 0.00 | 9 | NNW | 13 | NNW |
| Charlotteburg | NJ | 2026-05-07 14:10 | Mesonet | 59 | 40 | 48 | 29.78 | 0.00 | 7 | WNW | 13 | NW |
| Charlotteburg | NJ | 2026-05-07 14:05 | Mesonet | 59 | 36 | 42 | 29.78 | 0.00 | 2 | SE | 11 | WNW |
| Charlotteburg | NJ | 2026-05-07 14:00 | Mesonet | 60 | 37 | 43 | 29.78 | 0.00 | 3 | WSW | 11 | NW |
| Charlotteburg | NJ | 2026-05-07 13:55 | Mesonet | 59 | 36 | 42 | 29.78 | 0.00 | 5 | N | 7 | NW |
| Charlotteburg | NJ | 2026-05-07 13:50 | Mesonet | 59 | 36 | 42 | 29.78 | 0.00 | 5 | WNW | 12 | NNW |
| Charlotteburg | NJ | 2026-05-07 13:45 | Mesonet | 59 | 39 | 47 | 29.79 | 0.00 | 8 | WNW | 11 | WNW |
| Charlotteburg | NJ | 2026-05-07 13:35 | Mesonet | 59 | 36 | 42 | 29.79 | 0.00 | 3 | NNW | 9 | W |
| Charlotteburg | NJ | 2026-05-07 12:55 | Mesonet | 57 | 34 | 41 | 29.80 | 0.00 | 3 | WNW | 11 | NW |
| Charlotteburg | NJ | 2026-05-07 13:30 | Mesonet | 58 | 36 | 43 | 29.79 | 0.00 | 5 | SSW | 12 | NNW |
| Charlotteburg | NJ | 2026-05-07 13:25 | Mesonet | 58 | 36 | 44 | 29.80 | 0.00 | 6 | NNW | 8 | N |
| Charlotteburg | NJ | 2026-05-07 13:20 | Mesonet | 58 | 36 | 44 | 29.79 | 0.00 | 3 | WSW | 9 | NNW |
| Charlotteburg | NJ | 2026-05-07 13:15 | Mesonet | 58 | 37 | 45 | 29.80 | 0.00 | 3 | SW | 16 | NW |
| Charlotteburg | NJ | 2026-05-07 13:10 | Mesonet | 58 | 35 | 41 | 29.80 | 0.00 | 2 | NW | 7 | NE |
| Charlotteburg | NJ | 2026-05-07 13:05 | Mesonet | 58 | 34 | 40 | 29.81 | 0.00 | 7 | NE | 8 | NNW |
| Charlotteburg | NJ | 2026-05-07 13:00 | Mesonet | 58 | 35 | 43 | 29.81 | 0.00 | 2 | WNW | 9 | WNW |
| Charlotteburg | NJ | 2026-05-08 05:20 | Mesonet | 40 | 40 | 100 | 29.85 | 0.00 | 2 | N | 4 | NW |
data collection created in 0.069666147232056 (queried in 0.021334) rendered in: 0.00069999694824219

